METAR Data
IDs: Format: Raw Decoded Include TAF

Data at: 2124 UTC 06 Dec 2019

K2A0 062115Z AUTO 00000KT 9SM FEW036 BKN060 OVC070 12/05 A3014 RMK A01
K2A0 062055Z AUTO 00000KT 10SM SCT070 OVC090 12/03 A3014 RMK A01
K2A0 062020Z AUTO 00000KT 10SM OVC090 13/03 A3013 RMK A01
K2A0 062015Z AUTO 00000KT 10SM OVC085 13/03 A3013 RMK A01
K2A0 061955Z AUTO 00000KT 10SM OVC090 13/02 A3012 RMK A01
K2A0 061935Z AUTO 00000KT 10SM BKN090 OVC110 13/02 A3012 RMK A01
K2A0 061915Z AUTO 00000KT 10SM BKN095 OVC120 13/02 A3012 RMK A01
K2A0 061855Z AUTO 00000KT 10SM OVC090 13/02 A3012 RMK A01
K2A0 061835Z AUTO 23004KT 10SM OVC100 13/02 A3013 RMK A01
K2A0 061815Z AUTO 00000KT 10SM OVC095 13/01 A3013 RMK A01
K2A0 061755Z AUTO 00000KT 10SM OVC095 11/02 A3013 RMK A01
K2A0 061735Z AUTO 00000KT 10SM OVC090 11/04 A3015 RMK A01
K2A0 061715Z AUTO 00000KT 10SM BKN095 OVC110 10/04 A3016 RMK A01
K2A0 061655Z AUTO 00000KT 10SM OVC095 10/04 A3017 RMK A01
K2A0 061635Z AUTO 00000KT 10SM OVC090 08/05 A3018 RMK A01
K2A0 061615Z AUTO 00000KT 10SM SCT070 BKN085 08/05 A3018 RMK A01
K2A0 061555Z AUTO 00000KT 10SM BKN065 08/06 A3019 RMK A01
K2A0 061535Z AUTO 00000KT 8SM FEW035 FEW047 BKN060 08/05 A3019 RMK A01
K2A0 061515Z AUTO 00000KT 10SM SCT075 BKN095 08/05 A3018 RMK A01
K2A0 061455Z AUTO 00000KT 10SM FEW075 SCT090 08/05 A3018 RMK A01
K2A0 061435Z AUTO 00000KT 10SM BKN090 BKN110 07/05 A3017 RMK A01
K2A0 061415Z AUTO 00000KT 10SM BKN100 07/04 A3018 RMK A01
K2A0 061355Z AUTO 36004KT 10SM BKN095 06/04 A3017 RMK A01
K2A0 061335Z AUTO 00000KT 10SM BKN090 OVC110 05/04 A3017 RMK A01
K2A0 061315Z AUTO 00000KT 10SM SCT090 OVC110 05/04 A3018 RMK A01
K2A0 061255Z AUTO 00000KT 10SM OVC100 05/03 A3017 RMK A01
K2A0 061235Z AUTO 00000KT 10SM SCT100 05/03 A3017 RMK A01
K2A0 061215Z AUTO 00000KT 6SM BR FEW110 05/03 A3016 RMK A01
K2A0 061155Z AUTO 00000KT 10SM CLR 05/03 A3016 RMK A01
K2A0 061135Z AUTO 00000KT 10SM FEW048 FEW070 SCT090 05/04 A3015 RMK A01
K2A0 061115Z AUTO 00000KT 10SM FEW048 SCT070 OVC080 06/04 A3015 RMK A01
K2A0 061055Z AUTO 00000KT 10SM SCT075 OVC090 06/03 A3015 RMK A01
K2A0 061035Z AUTO 00000KT 10SM OVC095 06/03 A3015 RMK A01
K2A0 061015Z AUTO 01003KT 10SM BKN100 OVC120 05/03 A3015 RMK A01
K2A0 060955Z AUTO 00000KT 10SM OVC110 05/03 A3015 RMK A01
K2A0 060935Z AUTO 00000KT 10SM FEW080 BKN110 05/03 A3015 RMK A01
K2A0 060915Z AUTO 00000KT 10SM FEW070 FEW080 OVC110 06/04 A3015 RMK A01
K2A0 060855Z AUTO 00000KT 10SM FEW075 FEW090 OVC110 06/03 A3015 RMK A01
K2A0 060835Z AUTO 00000KT 10SM FEW046 BKN075 OVC120 06/03 A3015 RMK A01
K2A0 060815Z AUTO 00000KT 10SM FEW046 SCT065 BKN075 05/04 A3015 RMK A01
K2A0 060755Z AUTO 00000KT 10SM FEW070 SCT090 OVC120 05/04 A3015 RMK A01
K2A0 060735Z AUTO 00000KT 10SM FEW070 FEW080 BKN120 05/03 A3015 RMK A01
K2A0 060715Z AUTO 00000KT 10SM SCT070 BKN090 OVC110 05/03 A3015 RMK A01
K2A0 060655Z AUTO 00000KT 10SM SCT070 SCT100 OVC120 05/03 A3015 RMK A01
K2A0 060635Z AUTO 00000KT 10SM FEW085 OVC120 05/03 A3016 RMK A01
K2A0 060615Z AUTO 00000KT 10SM FEW075 BKN085 OVC110 05/03 A3015 RMK A01
K2A0 060555Z AUTO 00000KT 10SM SCT075 OVC090 05/03 A3015 RMK A01
K2A0 060535Z AUTO 00000KT 10SM FEW075 OVC095 05/03 A3016 RMK A01
K2A0 060515Z AUTO 00000KT 10SM BKN100 05/03 A3015 RMK A01
K2A0 060455Z AUTO 00000KT 10SM CLR 05/02 A3015 RMK A01
K2A0 060435Z AUTO 00000KT 10SM FEW120 04/02 A3015 RMK A01
K2A0 060415Z AUTO 00000KT 10SM FEW120 04/02 A3016 RMK A01
K2A0 060355Z AUTO 00000KT 10SM CLR 04/02 A3015 RMK A01
K2A0 060335Z AUTO 00000KT 10SM CLR 04/02 A3015 RMK A01
K2A0 060315Z AUTO 00000KT 10SM CLR 04/02 A3015 RMK A01
K2A0 060255Z AUTO 00000KT 10SM CLR 03/02 A3015 RMK A01
K2A0 060235Z AUTO 00000KT 10SM CLR 03/01 A3015 RMK A01
K2A0 060215Z AUTO 00000KT 10SM CLR 02/01 A3015 RMK A01
K2A0 060155Z AUTO 00000KT 10SM CLR 03/01 A3015 RMK A01
K2A0 060135Z AUTO 00000KT 10SM CLR 04/01 A3014 RMK A01
K2A0 060115Z AUTO 00000KT 10SM CLR 05/01 A3013 RMK A01
K2A0 060055Z AUTO 00000KT 10SM CLR 05/01 A3014 RMK A01
K2A0 060035Z AUTO 00000KT 10SM CLR 06/01 A3013 RMK A01
K2A0 060015Z AUTO 00000KT 10SM CLR 06/02 A3013 RMK A01
K2A0 052355Z AUTO 00000KT 10SM CLR 07/00 A3013 RMK A01
K2A0 052335Z AUTO 00000KT 10SM CLR 08/01 A3013 RMK A01
K2A0 052315Z AUTO 00000KT 10SM CLR 09/M00 A3012 RMK A01
K2A0 052255Z AUTO 00000KT 10SM CLR 10/M00 A3012 RMK A01
K2A0 052235Z AUTO 00000KT 10SM CLR 12/M01 A3012 RMK A01
K2A0 052215Z AUTO 00000KT 10SM CLR 14/M01 A3011 RMK A01
K2A0 052155Z AUTO 00000KT 10SM CLR 15/M02 A3011 RMK A01
K2A0 052135Z AUTO 00000KT 10SM CLR 16/M01 A3011 RMK A01
K2A0 052115Z AUTO 00000KT 10SM CLR 16/M01 A3011 RMK A01
K2A0 052055Z AUTO 00000KT 10SM CLR 16/M02 A3011 RMK A01
K2A0 052035Z AUTO 23003KT 10SM CLR 17/M02 A3011 RMK A01
K2A0 052015Z AUTO 00000KT 10SM CLR 16/M02 A3011 RMK A01
K2A0 051955Z AUTO 00000KT 10SM CLR 16/M01 A3011 RMK A01
K2A0 051935Z AUTO 00000KT 10SM CLR 16/M01 A3011 RMK A01
K2A0 051915Z AUTO VRB04KT 10SM CLR 16/M01 A3011 RMK A01
K2A0 051855Z AUTO VRB03KT 10SM CLR 15/M00 A3012 RMK A01
K2A0 051835Z AUTO 21005KT 10SM CLR 15/M01 A3013 RMK A01
K2A0 051815Z AUTO 15003KT 10SM CLR 15/01 A3013 RMK A01
K2A0 051755Z AUTO 00000KT 10SM CLR 14/M00 A3014 RMK A01
K2A0 051735Z AUTO VRB04KT 10SM CLR 14/00 A3015 RMK A01
K2A0 051715Z AUTO VRB04KT 10SM CLR 13/00 A3015 RMK A01
K2A0 051655Z AUTO 22005KT 10SM CLR 13/M00 A3016 RMK A01
K2A0 051615Z AUTO 24005KT 10SM CLR 11/00 A3018 RMK A01
K2A0 051555Z AUTO 21004KT 10SM CLR 11/01 A3018 RMK A01
K2A0 051535Z AUTO 21005KT 10SM CLR 10/01 A3017 RMK A01
K2A0 051515Z AUTO VRB04KT 10SM CLR 10/01 A3017 RMK A01
K2A0 051455Z AUTO 23004KT 10SM CLR 09/02 A3016 RMK A01
K2A0 051435Z AUTO 22004KT 10SM CLR 08/03 A3016 RMK A01
K2A0 051415Z AUTO 23004KT 10SM CLR 06/03 A3014 RMK A01
K2A0 051355Z AUTO 00000KT 10SM CLR 04/03 A3013 RMK A01
K2A0 051335Z AUTO 00000KT 10SM CLR 02/00 A3012 RMK A01
K2A0 051315Z AUTO 00000KT 10SM CLR 00/M01 A3011 RMK A01
K2A0 051255Z AUTO 00000KT 10SM CLR M00/M01 A3010 RMK A01
K2A0 051235Z AUTO 00000KT 10SM CLR 00/M01 A3009 RMK A01
K2A0 051215Z AUTO 00000KT 10SM CLR M00/M01 A3008 RMK A01
K2A0 051155Z AUTO 00000KT 10SM CLR M00/M01 A3007 RMK A01
K2A0 051135Z AUTO 00000KT 10SM CLR 00/M01 A3007 RMK A01
K2A0 051115Z AUTO 00000KT 10SM CLR 01/M01 A3006 RMK A01
K2A0 051055Z AUTO 00000KT 10SM CLR 00/M01 A3006 RMK A01
K2A0 051035Z AUTO 10003KT 10SM CLR 00/M01 A3006 RMK A01
K2A0 051015Z AUTO 00000KT 10SM CLR 00/M01 A3005 RMK A01
K2A0 050955Z AUTO 00000KT 10SM CLR 01/M01 A3005 RMK A01
K2A0 050935Z AUTO 00000KT 10SM CLR 01/M00 A3005 RMK A01